• Join FlightAware (Why Join?)
  • Login
  • US Flag 
05:46AM EDT


 

Airport Tracker/Info


-or-


 

Live Flight TrackerFlight Track Log ✈ EJA951 ✈ 16-Jul-2013 ✈ KRIC - KJAX

Flight Track Log - Related Links

Times and Time Zones

All times are in EDT time to prevent confusion due to time zone crossing. See the EJA951 flight status page for this flight to view local times or setup timezone preferences in your user account.

Time Position Orientation Groundspeed Altitude Reporting Facility
EDT Latitude Longitude Course Direction KTS MPH feet Rate Location/Type
08:43AM 37.5500 -77.3000 200° South 203 234 2,600  Level Potomac TRACON
08:44AM 37.5167 -77.2333 122° Southeast 286 329 4,600 2,700 Climbing Potomac TRACON
08:45AM 37.4500 -77.1833 149° Southeast 303 349 7,800 1,920 Climbing Potomac TRACON
08:47AM 37.3603 -77.1386 158° South 311 358 9,000 1,320 Climbing Washington Center
08:48AM 37.2767 -77.1422 182° South 299 344 10,800 1,620 Climbing Washington Center
08:49AM 36.8191 -77.3249 200° South  Level FlightAware Approximate
08:49AM 37.1847 -77.1639 191° South 316 364 12,300  Level Washington Center
08:50AM 37.0783 -77.1617 179° South 359 413 13,800 1,380 Climbing Washington Center
08:51AM 36.9719 -77.1594 179° South 383 441 15,100 1,560 Climbing Washington Center
08:52AM 36.8594 -77.1597 180° South 402 463 17,000 1,680 Climbing Washington Center
08:53AM 36.7489 -77.1603 180° South 402 463 18,600 1,380 Climbing Washington Center
08:54AM 36.6361 -77.1503 176° South 402 463 19,800 1,260 Climbing Washington Center
08:55AM 36.5153 -77.1478 179° South 412 474 21,100 1,560 Climbing Washington Center
08:56AM 36.3964 -77.1453 179° South 425 489 23,000 1,800 Climbing Washington Center
08:57AM 36.2794 -77.1431 179° South 425 489 24,800 1,560 Climbing Washington Center
08:58AM 36.1817 -77.1411 179° South 425 489 26,200 1,800 Climbing Washington Center
08:59AM 36.0522 -77.1361 178° South 425 489 28,400 1,860 Climbing Washington Center
09:00AM 35.9292 -77.1361 180° South 436 502 29,900 1,440 Climbing Washington Center
09:01AM 35.8097 -77.1775 196° South 433 498 31,400 1,440 Climbing Washington Center
09:02AM 35.6978 -77.2750 215° Southwest 445 512 32,900 1,440 Climbing Washington Center
09:03AM 35.5858 -77.3722 215° Southwest 476 548 34,400 1,320 Climbing Washington Center
09:04AM 35.4717 -77.4692 215° Southwest 499 574 35,600 840 Climbing Washington Center
09:05AM 35.3467 -77.5833 217° Southwest 505 581 36,100 840 Climbing Washington Center
09:06AM 35.2342 -77.7000 220° Southwest 518 596 37,300 900 Climbing Washington Center
09:07AM 35.1236 -77.8114 220° Southwest 530 610 38,000 300 Climbing Washington Center
09:08AM 35.0150 -77.9250 221° Southwest 530 610 38,000  Level Washington Center
09:09AM 34.9064 -78.0361 220° Southwest 523 602 38,000  Level Washington Center
09:10AM 34.7386 -78.2164 221° Southwest 534 615 38,000  Level Jacksonville Center
09:11AM 34.6319 -78.3256 220° Southwest 522 601 38,000  Level Jacksonville Center
09:12AM 34.5214 -78.4372 220° Southwest 517 595 38,000  Level Jacksonville Center
09:13AM 34.4125 -78.5461 220° Southwest 512 589 38,000  Level Jacksonville Center
09:14AM 34.3075 -78.6519 220° Southwest 512 589 38,000  Level Jacksonville Center
09:15AM 34.2067 -78.7522 219° Southwest 512 589 38,000  Level Jacksonville Center
09:16AM 34.0975 -78.8628 220° Southwest 512 589 38,000  Level Jacksonville Center
09:17AM 33.9861 -78.9706 219° Southwest 512 589 38,000  Level Jacksonville Center
09:18AM 33.8769 -79.0781 219° Southwest 512 589 38,000  Level Jacksonville Center
09:19AM 33.7694 -79.1825 219° Southwest 512 589 38,000  Level Jacksonville Center
09:20AM 33.6658 -79.2867 220° Southwest 505 581 38,000  Level Jacksonville Center
09:21AM 33.5461 -79.4011 219° Southwest 505 581 38,000  Level Jacksonville Center
09:22AM 33.4342 -79.5103 219° Southwest 511 588 38,000  Level Jacksonville Center
09:23AM 33.3264 -79.6161 219° Southwest 511 588 38,000  Level Jacksonville Center
09:24AM 33.2164 -79.7244 219° Southwest 511 588 38,000 -480 Level Jacksonville Center
09:25AM 33.1044 -79.8303 218° Southwest 511 588 37,100 -900 Descending Jacksonville Center
09:26AM 32.9881 -79.9431 219° Southwest 516 594 36,200 -1,260 Descending Jacksonville Center
09:27AM 32.8675 -80.0558 218° Southwest 538 619 34,600 -1,740 Descending Jacksonville Center
09:28AM 32.7422 -80.1561 214° Southwest 550 633 32,800 -1,800 Descending Jacksonville Center
09:29AM 32.6172 -80.2536 213° Southwest 555 639 31,000 -1,440 Descending Jacksonville Center
09:30AM 32.4875 -80.3533 213° Southwest 555 639 30,000 -540 Descending Jacksonville Center
09:31AM 32.3581 -80.4553 214° Southwest 555 639 30,000  Level Jacksonville Center
09:32AM 32.2306 -80.5522 213° Southwest 542 624 30,000  Level Jacksonville Center
09:33AM 32.1069 -80.6483 213° Southwest 542 624 30,000 -360 Level Jacksonville Center
09:34AM 31.9894 -80.7394 213° Southwest 549 632 29,300 -1,920 Descending Jacksonville Center
09:35AM 31.8514 -80.8453 213° Southwest 549 632 26,200 -2,700 Descending Jacksonville Center
09:36AM 31.7317 -80.9336 212° Southwest 521 600 24,000 -1,440 Descending Jacksonville Center
09:37AM 31.6286 -81.0114 213° Southwest 510 587 23,400 -1,920 Descending Jacksonville Center
09:38AM 31.5067 -81.1064 214° Southwest 504 580 20,200 -2,820 Descending Jacksonville Center
09:39AM 31.3950 -81.1792 209° Southwest 462 532 17,800 -2,460 Descending Jacksonville Center
09:40AM 31.2853 -81.2467 208° Southwest 457 526 15,300 -2,400 Descending Jacksonville Center
09:41AM 31.1775 -81.3069 206° Southwest 437 503 13,100 -2,100 Descending Jacksonville Center
09:42AM 31.0653 -81.3453 196° South 422 486 11,100 -1,560 Descending Jacksonville Center
09:43AM 30.9614 -81.3906 200° South 422 486 10,000 -600 Descending Jacksonville Center
09:44AM 30.8703 -81.4550 211° Southwest 410 472 10,000 -480 Level Jacksonville Center
09:45AM 30.8586 -81.5544 262° West 315 362 9,100 -1,440 Descending Jacksonville Center
09:46AM 30.8242 -81.6369 244° Southwest 303 349 7,200 -2,220 Descending Jacksonville Center
09:47AM 30.7808 -81.7125 236° Southwest 296 341 4,700 -2,100 Descending Jacksonville Center
09:48AM 30.7378 -81.7758 232° Southwest 281 323 3,000 -900 Descending Jacksonville Center
09:49AM 30.6942 -81.8200 221° Southwest 238 274 3,000  Level Jacksonville Center
09:50AM 30.6444 -81.8494 207° Southwest 211 243 3,000 -120 Level Jacksonville Center
09:51AM 30.5964 -81.8453 176° South 186 214 2,800 -600 Descending Jacksonville Center
09:52AM 30.5794 -81.8236 132° Southeast 178 205 2,100 -720 Descending Jacksonville Center
09:53AM 30.5519 -81.7878 132° Southeast 172 198 1,800 -540 Descending Jacksonville Center
09:54AM 30.5222 -81.7472 130° Southeast 127 146 1,100 -660 Descending Jacksonville Center
09:55AM 30.5011 -81.7183 130° Southeast 125 144 400 -720 Descending Jacksonville Center
09:57AM 30.4941 -81.6879 128° Southeast  Level Estimated
10:04AM 30.4941 -81.6879 128° Southeast  Level Estimated